createdAt,value
2019-03-24T00:00:33.476Z,26.40
2019-03-24T00:03:08.023Z,24.43
2019-03-24T00:05:43.894Z,23.47
2019-03-24T00:08:18.906Z,22.83
2019-03-24T00:10:56.552Z,24.43
2019-03-24T00:13:32.006Z,22.70
2019-03-24T00:16:08.573Z,23.27
2019-03-24T00:18:43.617Z,22.15
2019-03-24T00:21:19.059Z,25.53
2019-03-24T00:23:53.769Z,21.23
2019-03-24T00:26:28.853Z,21.83
2019-03-24T00:29:03.792Z,19.57
2019-03-24T00:31:38.904Z,20.30
2019-03-24T00:34:13.705Z,20.67
2019-03-24T00:36:48.740Z,18.90
2019-03-24T00:39:23.519Z,18.50
2019-03-24T00:41:58.147Z,19.10
2019-03-24T00:44:34.307Z,18.40
2019-03-24T00:47:08.859Z,16.60
2019-03-24T00:49:52.625Z,19.83
2019-03-24T00:52:27.595Z,19.77
2019-03-24T00:55:03.451Z,18.13
2019-03-24T00:57:38.462Z,19.00
2019-03-24T01:00:21.375Z,21.00
2019-03-24T01:02:57.501Z,19.80
2019-03-24T01:05:32.510Z,20.90
2019-03-24T01:08:07.691Z,19.90
2019-03-24T01:10:44.034Z,20.07
2019-03-24T01:13:19.122Z,19.93
2019-03-24T01:15:54.576Z,20.47
2019-03-24T01:18:29.555Z,16.40
2019-03-24T01:21:06.558Z,20.07
2019-03-24T01:23:42.051Z,19.53
2019-03-24T01:26:16.759Z,19.98
2019-03-24T01:28:51.296Z,18.87
2019-03-24T01:31:27.615Z,19.20
2019-03-24T01:34:02.735Z,21.15
2019-03-24T01:36:37.931Z,19.87
2019-03-24T01:39:13.891Z,18.90
2019-03-24T01:41:49.218Z,20.75
2019-03-24T01:44:25.520Z,20.92
2019-03-24T01:47:00.635Z,24.73
2019-03-24T01:49:35.517Z,18.93
2019-03-24T01:52:10.468Z,22.30
2019-03-24T01:54:44.882Z,21.50
2019-03-24T01:57:20.065Z,22.63
2019-03-24T01:59:54.984Z,21.47
2019-03-24T02:02:29.720Z,19.30
2019-03-24T02:05:04.678Z,25.03
2019-03-24T02:07:39.957Z,29.97
2019-03-24T02:10:15.103Z,26.87
2019-03-24T02:12:50.241Z,26.90
2019-03-24T02:15:25.230Z,25.20
2019-03-24T02:17:59.893Z,31.93
2019-03-24T02:20:34.747Z,29.02
2019-03-24T02:23:09.700Z,28.30
2019-03-24T02:25:44.361Z,24.13
2019-03-24T02:28:18.936Z,31.83
2019-03-24T02:30:53.837Z,31.67
2019-03-24T02:33:28.976Z,30.27
2019-03-24T02:36:05.472Z,31.65
2019-03-24T02:38:41.934Z,29.40
2019-03-24T02:41:17.592Z,31.93
2019-03-24T02:43:54.205Z,31.53
2019-03-24T02:46:29.141Z,33.93
2019-03-24T02:49:06.867Z,29.47
2019-03-24T02:51:42.914Z,34.65
2019-03-24T02:54:17.538Z,32.45
2019-03-24T02:56:54.824Z,30.97
2019-03-24T02:59:30.478Z,33.80
2019-03-24T03:02:05.685Z,34.27
2019-03-24T03:04:42.186Z,32.57
2019-03-24T03:07:17.514Z,34.57
2019-03-24T03:09:53.138Z,31.10
2019-03-24T03:12:31.344Z,29.67
2019-03-24T03:15:09.855Z,32.73
2019-03-24T03:17:49.389Z,29.90
2019-03-24T03:20:25.422Z,29.53
2019-03-24T03:23:01.104Z,33.73
2019-03-24T03:25:36.794Z,31.95
2019-03-24T03:28:11.866Z,35.40
2019-03-24T03:30:46.540Z,39.13
2019-03-24T03:33:21.612Z,37.77
2019-03-24T03:35:56.429Z,40.23
2019-03-24T03:38:31.186Z,35.43
2019-03-24T03:41:07.295Z,38.13
2019-03-24T03:43:41.933Z,39.43
2019-03-24T03:46:18.988Z,34.63
2019-03-24T03:48:54.975Z,35.67
2019-03-24T03:51:29.640Z,35.90
2019-03-24T03:54:14.103Z,35.47
2019-03-24T03:56:51.014Z,38.67
2019-03-24T03:59:26.045Z,42.03
2019-03-24T04:02:02.004Z,39.13
2019-03-24T04:04:38.370Z,38.73
2019-03-24T04:07:12.966Z,43.43
2019-03-24T04:09:47.752Z,43.47
2019-03-24T04:12:24.181Z,42.90
2019-03-24T04:14:58.613Z,43.77
2019-03-24T04:17:38.073Z,43.17
2019-03-24T04:20:13.141Z,46.90
2019-03-24T04:22:48.241Z,48.47
2019-03-24T04:25:25.415Z,46.60
2019-03-24T04:28:00.485Z,43.77
2019-03-24T04:30:36.523Z,46.33
2019-03-24T04:33:11.629Z,48.17
2019-03-24T04:35:47.917Z,42.53
2019-03-24T04:38:23.014Z,43.17
2019-03-24T04:40:57.815Z,42.00
2019-03-24T04:43:32.759Z,46.40
2019-03-24T04:46:07.360Z,42.67
2019-03-24T04:48:42.317Z,45.33
2019-03-24T04:51:17.724Z,44.38
2019-03-24T04:53:52.806Z,42.60
2019-03-24T04:56:27.934Z,46.60
2019-03-24T04:59:02.808Z,45.40
2019-03-24T05:01:37.850Z,38.37
2019-03-24T05:04:13.414Z,38.67
2019-03-24T05:06:49.220Z,37.73
2019-03-24T05:09:24.159Z,37.40
2019-03-24T05:11:59.225Z,38.58
2019-03-24T05:14:33.811Z,41.77
2019-03-24T05:17:09.267Z,39.03
2019-03-24T05:19:44.334Z,36.60
2019-03-24T05:22:19.564Z,31.43
2019-03-24T05:24:53.999Z,38.20
2019-03-24T05:27:29.015Z,34.00
2019-03-24T05:30:05.464Z,33.23
2019-03-24T05:32:40.294Z,37.73
2019-03-24T05:35:15.160Z,29.33
2019-03-24T05:37:49.743Z,25.80
2019-03-24T05:40:24.261Z,31.97
2019-03-24T05:42:59.111Z,26.20
2019-03-24T05:45:33.674Z,30.33
2019-03-24T05:48:09.014Z,33.63
2019-03-24T05:50:44.399Z,30.13
2019-03-24T05:53:19.204Z,31.60
2019-03-24T05:55:54.168Z,28.75
2019-03-24T05:58:28.755Z,29.92
2019-03-24T06:01:04.762Z,27.92
2019-03-24T06:03:39.699Z,25.30
2019-03-24T06:06:14.485Z,24.57
2019-03-24T06:08:50.949Z,22.83
2019-03-24T06:11:27.116Z,22.17
2019-03-24T06:14:01.595Z,20.75
2019-03-24T06:16:38.005Z,19.63
2019-03-24T06:19:12.650Z,22.17
2019-03-24T06:21:47.612Z,17.43
2019-03-24T06:24:23.391Z,19.47
2019-03-24T06:26:58.623Z,20.47
2019-03-24T06:29:36.646Z,17.63
2019-03-24T06:32:11.640Z,17.83
2019-03-24T06:34:46.467Z,16.53
2019-03-24T06:37:21.896Z,20.02
2019-03-24T06:39:57.177Z,16.07
2019-03-24T06:42:32.592Z,17.62
2019-03-24T06:45:09.901Z,16.10
2019-03-24T06:47:57.383Z,19.00
2019-03-24T06:50:32.857Z,17.03
2019-03-24T06:53:08.298Z,21.58
2019-03-24T06:55:43.251Z,19.17
2019-03-24T06:58:18.338Z,17.83
2019-03-24T07:00:53.964Z,18.87
2019-03-24T07:03:32.633Z,15.67
2019-03-24T07:06:10.778Z,15.23
2019-03-24T07:08:47.484Z,18.40
2019-03-24T07:11:23.491Z,18.40
2019-03-24T07:13:59.966Z,18.40
2019-03-24T07:16:34.521Z,17.80
2019-03-24T07:19:09.403Z,15.03
2019-03-24T07:21:45.768Z,19.60
2019-03-24T07:24:20.600Z,20.27
2019-03-24T07:26:55.678Z,20.27
2019-03-24T07:29:33.411Z,21.07
2019-03-24T07:32:08.695Z,18.57
2019-03-24T07:34:44.179Z,22.50
2019-03-24T07:37:19.302Z,17.47
2019-03-24T07:39:53.966Z,18.10
2019-03-24T07:42:33.348Z,14.63
2019-03-24T07:45:28.138Z,21.97
2019-03-24T07:48:06.078Z,15.87
2019-03-24T07:50:42.666Z,16.67
2019-03-24T07:53:19.165Z,19.83
2019-03-24T07:55:56.342Z,15.07
2019-03-24T07:58:31.371Z,18.60
2019-03-24T08:01:06.432Z,19.17
2019-03-24T08:03:42.354Z,17.30
2019-03-24T08:06:17.664Z,18.97
2019-03-24T08:08:53.307Z,14.17
2019-03-24T08:11:47.338Z,15.37
2019-03-24T08:14:29.200Z,17.57
2019-03-24T08:17:03.833Z,17.83
2019-03-24T08:19:39.660Z,17.77
2019-03-24T08:22:17.551Z,18.83
2019-03-24T08:24:52.151Z,16.83
2019-03-24T08:27:29.134Z,14.90
2019-03-24T08:30:09.329Z,17.60
2019-03-24T08:32:46.973Z,18.17
2019-03-24T08:35:25.980Z,20.57
2019-03-24T08:38:03.891Z,14.97
2019-03-24T08:40:40.260Z,14.17
2019-03-24T08:43:18.162Z,11.97
2019-03-24T08:45:52.834Z,17.67
2019-03-24T08:48:40.163Z,16.57
2019-03-24T08:51:17.669Z,15.83
2019-03-24T08:53:54.839Z,17.60
2019-03-24T08:56:33.461Z,16.45
2019-03-24T08:59:12.005Z,15.03
2019-03-24T09:01:48.333Z,12.80
2019-03-24T09:04:29.720Z,19.53
2019-03-24T09:07:05.326Z,18.10
2019-03-24T09:09:43.947Z,13.33
2019-03-24T09:12:24.883Z,13.97
2019-03-24T09:15:06.341Z,16.97
2019-03-24T09:17:46.828Z,15.90
2019-03-24T09:20:26.655Z,16.07
2019-03-24T09:23:04.891Z,18.40
2019-03-24T09:25:42.278Z,18.03
2019-03-24T09:28:21.796Z,16.47
2019-03-24T09:30:56.965Z,17.03
2019-03-24T09:33:34.616Z,16.87
2019-03-24T09:36:15.961Z,17.37
2019-03-24T09:38:54.873Z,19.37
2019-03-24T09:41:35.955Z,15.50
2019-03-24T09:44:26.349Z,15.67
2019-03-24T09:47:04.493Z,18.67
2019-03-24T09:49:43.501Z,20.20
2019-03-24T09:52:18.729Z,19.77
2019-03-24T09:54:56.644Z,17.57
2019-03-24T09:57:32.281Z,16.30
2019-03-24T10:00:13.487Z,16.77
2019-03-24T10:02:50.243Z,17.37
2019-03-24T10:05:28.526Z,14.10
2019-03-24T10:08:04.711Z,17.93
2019-03-24T10:10:41.094Z,18.10
2019-03-24T10:13:18.888Z,18.07
2019-03-24T10:16:06.461Z,20.87
2019-03-24T10:18:43.472Z,18.03
2019-03-24T10:21:19.157Z,23.07
2019-03-24T10:23:57.962Z,21.07
2019-03-24T10:26:34.383Z,20.70
2019-03-24T10:29:09.863Z,23.10
2019-03-24T10:31:44.557Z,20.77
2019-03-24T10:34:22.184Z,15.83
2019-03-24T10:36:59.301Z,21.10
2019-03-24T10:39:41.118Z,20.90
2019-03-24T10:42:17.441Z,15.00
2019-03-24T10:44:53.825Z,18.00
2019-03-24T10:47:30.504Z,16.98
2019-03-24T10:50:06.976Z,17.03
2019-03-24T10:52:43.510Z,17.70
2019-03-24T10:55:27.321Z,18.37
2019-03-24T10:58:07.111Z,21.17
2019-03-24T11:00:45.776Z,16.33
2019-03-24T11:03:21.924Z,10.97
2019-03-24T11:06:02.723Z,13.33
2019-03-24T11:08:39.780Z,10.53
2019-03-24T11:11:19.139Z,15.43
2019-03-24T11:14:05.387Z,15.27
2019-03-24T11:16:43.328Z,14.03
2019-03-24T11:19:19.035Z,10.30
2019-03-24T11:21:57.344Z,13.60
2019-03-24T11:24:31.921Z,13.43
2019-03-24T11:27:10.689Z,11.83
2019-03-24T11:29:51.851Z,9.70
2019-03-24T11:32:40.636Z,13.97
2019-03-24T11:35:20.563Z,16.97
2019-03-24T11:37:59.649Z,11.40
2019-03-24T11:40:34.738Z,13.97
2019-03-24T11:43:10.222Z,13.40
2019-03-24T11:45:55.110Z,13.33
2019-03-24T11:48:35.787Z,14.63
2019-03-24T11:51:17.318Z,12.93
2019-03-24T11:53:55.590Z,14.07
2019-03-24T11:56:31.762Z,14.23
2019-03-24T11:59:10.833Z,12.47
2019-03-24T12:01:50.825Z,11.87
2019-03-24T12:04:31.649Z,12.80
2019-03-24T12:07:07.982Z,12.83
2019-03-24T12:09:51.684Z,11.03
2019-03-24T12:12:27.835Z,13.73
2019-03-24T12:15:05.391Z,12.20
2019-03-24T12:17:43.806Z,13.10
2019-03-24T12:20:21.125Z,10.73
2019-03-24T12:22:58.029Z,10.70
2019-03-24T12:25:37.022Z,15.40
2019-03-24T12:28:13.521Z,10.47
2019-03-24T12:30:53.137Z,14.47
2019-03-24T12:33:27.827Z,18.20
2019-03-24T12:36:02.624Z,16.20
2019-03-24T12:38:38.801Z,13.52
2019-03-24T12:41:16.769Z,12.70
2019-03-24T12:43:56.070Z,11.90
2019-03-24T12:46:31.439Z,12.20
2019-03-24T12:49:10.262Z,12.30
2019-03-24T12:51:49.136Z,12.00
2019-03-24T12:54:28.061Z,12.43
2019-03-24T12:57:21.031Z,14.23
2019-03-24T13:00:06.531Z,13.03
2019-03-24T13:03:21.496Z,14.50
2019-03-24T13:06:10.570Z,12.20
2019-03-24T13:09:00.717Z,15.87
2019-03-24T13:11:42.462Z,12.57
2019-03-24T13:14:23.115Z,11.50
2019-03-24T13:17:10.316Z,10.57
2019-03-24T13:19:48.814Z,12.87
2019-03-24T13:22:34.231Z,9.13
2019-03-24T13:25:17.573Z,17.07
2019-03-24T13:28:00.438Z,11.97
2019-03-24T13:30:41.359Z,8.50
2019-03-24T13:33:31.379Z,7.93
2019-03-24T13:36:13.254Z,10.37
2019-03-24T13:38:55.409Z,9.87
2019-03-24T13:41:38.699Z,9.77
2019-03-24T13:44:28.705Z,8.03
2019-03-24T13:47:06.724Z,8.03
2019-03-24T13:49:53.649Z,8.70
2019-03-24T13:52:39.384Z,8.57
2019-03-24T13:55:28.731Z,10.13
2019-03-24T13:58:30.568Z,9.05
2019-03-24T14:01:15.187Z,5.87
2019-03-24T14:04:05.340Z,7.00
2019-03-24T14:06:54.218Z,7.00
2019-03-24T14:09:38.493Z,9.47
2019-03-24T14:12:16.376Z,7.27
2019-03-24T14:15:10.816Z,9.03
2019-03-24T14:17:51.767Z,9.13
2019-03-24T14:20:30.401Z,7.17
2019-03-24T14:23:05.253Z,7.47
2019-03-24T14:25:41.763Z,6.90
2019-03-24T14:28:18.511Z,8.97
2019-03-24T14:30:55.115Z,6.63
2019-03-24T14:33:31.158Z,6.17
2019-03-24T14:36:17.896Z,6.13
2019-03-24T14:38:55.262Z,6.63
2019-03-24T14:41:31.897Z,7.45
2019-03-24T14:44:12.189Z,6.47
2019-03-24T14:46:46.863Z,9.10
2019-03-24T14:49:25.100Z,7.10
2019-03-24T14:52:01.929Z,7.17
2019-03-24T14:54:47.697Z,7.10
2019-03-24T14:57:23.962Z,9.27
2019-03-24T14:59:59.067Z,7.37
2019-03-24T15:02:34.198Z,8.60
2019-03-24T15:05:10.001Z,6.40
2019-03-24T15:07:44.865Z,6.90
2019-03-24T15:10:25.432Z,9.03
2019-03-24T15:13:00.347Z,7.73
2019-03-24T15:15:36.130Z,8.43
2019-03-24T15:18:14.883Z,4.87
2019-03-24T15:20:52.184Z,5.13
2019-03-24T15:23:28.593Z,6.70
2019-03-24T15:26:08.262Z,6.50
2019-03-24T15:28:43.602Z,6.43
2019-03-24T15:31:18.812Z,5.83
2019-03-24T15:33:55.780Z,5.97
2019-03-24T15:36:31.129Z,6.73
2019-03-24T15:39:10.566Z,5.00
2019-03-24T15:41:51.682Z,10.07
2019-03-24T15:44:27.643Z,5.20
2019-03-24T15:47:03.137Z,6.37
2019-03-24T15:49:46.868Z,7.50
2019-03-24T15:52:33.928Z,6.00
2019-03-24T15:55:11.026Z,4.67
2019-03-24T15:57:48.847Z,5.60
2019-03-24T16:00:47.030Z,3.23
2019-03-24T16:03:24.106Z,4.53
2019-03-24T16:06:11.469Z,4.37
2019-03-24T16:08:49.632Z,5.60
2019-03-24T16:11:30.167Z,6.60
2019-03-24T16:14:04.954Z,5.60
2019-03-24T16:16:43.809Z,8.37
2019-03-24T16:19:19.446Z,3.77
2019-03-24T16:22:14.596Z,8.10
2019-03-24T16:24:50.791Z,3.80
2019-03-24T16:27:28.819Z,9.73
2019-03-24T16:30:07.225Z,5.20
2019-03-24T16:32:48.624Z,7.80
2019-03-24T16:35:27.834Z,5.27
2019-03-24T16:38:09.804Z,7.60
2019-03-24T16:40:47.819Z,3.50
2019-03-24T16:43:26.321Z,5.27
2019-03-24T16:46:03.030Z,5.73
2019-03-24T16:48:40.865Z,6.00
2019-03-24T16:51:17.819Z,5.17
2019-03-24T16:53:53.277Z,5.07
2019-03-24T16:56:37.328Z,7.03
2019-03-24T16:59:12.704Z,5.83
2019-03-24T17:01:49.997Z,5.90
2019-03-24T17:04:39.791Z,8.80
2019-03-24T17:07:15.563Z,7.23
2019-03-24T17:09:52.495Z,4.80
2019-03-24T17:12:27.601Z,8.13
2019-03-24T17:15:06.779Z,6.77
2019-03-24T17:17:43.182Z,7.07
2019-03-24T17:20:20.013Z,11.50
2019-03-24T17:23:00.052Z,7.70
2019-03-24T17:25:37.914Z,8.43
2019-03-24T17:28:15.851Z,8.17
2019-03-24T17:30:54.113Z,12.60
2019-03-24T17:33:34.886Z,6.00
2019-03-24T17:36:12.197Z,8.93
2019-03-24T17:38:57.055Z,11.30
2019-03-24T17:41:37.102Z,8.63
2019-03-24T17:44:22.814Z,7.13
2019-03-24T17:47:01.287Z,8.23
2019-03-24T17:49:41.437Z,9.63
2019-03-24T17:52:19.960Z,11.33
2019-03-24T17:54:59.113Z,9.43
2019-03-24T17:57:39.180Z,8.50
2019-03-24T18:00:45.006Z,9.17
2019-03-24T18:03:31.641Z,9.68
2019-03-24T18:06:16.038Z,10.00
2019-03-24T18:08:57.074Z,9.30
2019-03-24T18:11:38.359Z,10.20
2019-03-24T18:14:18.617Z,10.70
2019-03-24T18:16:59.784Z,12.17
2019-03-24T18:19:35.247Z,13.90
2019-03-24T18:22:14.803Z,14.17
2019-03-24T18:24:51.085Z,9.90
2019-03-24T18:27:32.066Z,12.33
2019-03-24T18:30:15.966Z,9.87
2019-03-24T18:32:53.421Z,12.97
2019-03-24T18:35:29.855Z,10.83
2019-03-24T18:38:05.694Z,10.53
2019-03-24T18:40:45.824Z,11.82
2019-03-24T18:43:33.307Z,7.82
2019-03-24T18:46:09.808Z,8.33
2019-03-24T18:48:50.972Z,9.47
2019-03-24T18:51:35.313Z,9.90
2019-03-24T18:54:11.263Z,10.70
2019-03-24T18:56:51.299Z,8.77
2019-03-24T18:59:35.564Z,10.20
2019-03-24T19:02:10.739Z,7.60
2019-03-24T19:04:52.049Z,8.87
2019-03-24T19:07:27.684Z,8.07
2019-03-24T19:10:11.081Z,8.70
2019-03-24T19:12:49.799Z,8.60
2019-03-24T19:15:26.250Z,7.33
2019-03-24T19:18:05.516Z,9.90
2019-03-24T19:20:40.231Z,10.10
2019-03-24T19:23:18.853Z,8.87
2019-03-24T19:26:02.229Z,15.50
2019-03-24T19:28:47.597Z,10.20
2019-03-24T19:31:31.062Z,7.57
2019-03-24T19:34:07.475Z,11.17
2019-03-24T19:36:50.856Z,13.13
2019-03-24T19:42:45.860Z,9.40
2019-03-24T19:45:21.429Z,9.20
2019-03-24T19:47:57.747Z,12.47
2019-03-24T19:50:34.616Z,9.97
2019-03-24T19:53:11.445Z,7.80
2019-03-24T19:55:49.735Z,12.50
2019-03-24T19:58:26.468Z,13.63
2019-03-24T20:01:02.182Z,11.50
2019-03-24T20:03:43.586Z,11.53
2019-03-24T20:06:23.843Z,14.13
2019-03-24T20:09:01.168Z,14.13
2019-03-24T20:11:45.158Z,12.40
2019-03-24T20:14:24.084Z,9.00
2019-03-24T20:17:02.629Z,12.00
2019-03-24T20:19:39.014Z,9.50
2019-03-24T20:22:14.772Z,11.57
2019-03-24T20:24:51.726Z,13.10
2019-03-24T20:27:29.762Z,11.57
2019-03-24T20:30:09.820Z,14.17
2019-03-24T20:32:47.144Z,12.30
2019-03-24T20:35:22.064Z,16.83
2019-03-24T20:37:59.521Z,13.33
2019-03-24T20:40:35.212Z,16.43
2019-03-24T20:43:10.145Z,13.07
2019-03-24T20:45:45.304Z,12.90
2019-03-24T20:48:19.996Z,11.43
2019-03-24T20:50:55.452Z,14.10
2019-03-24T20:53:33.092Z,16.23
2019-03-24T20:56:09.663Z,16.13
2019-03-24T20:58:46.960Z,15.43
2019-03-24T21:01:23.985Z,16.43
2019-03-24T21:04:02.063Z,14.07
2019-03-24T21:06:41.720Z,14.20
2019-03-24T21:09:21.992Z,13.67
2019-03-24T21:11:58.746Z,15.63
2019-03-24T21:31:26.190Z,11.20
2019-03-24T21:34:03.139Z,10.23
2019-03-24T21:36:39.071Z,13.40
2019-03-24T21:39:18.722Z,15.97
2019-03-24T21:41:53.394Z,11.73
2019-03-24T21:44:28.076Z,15.03
2019-03-24T21:47:07.771Z,11.50
2019-03-24T21:49:44.176Z,9.80
2019-03-24T21:52:18.687Z,12.60
2019-03-24T21:54:57.754Z,14.23
2019-03-24T21:57:36.659Z,15.77
2019-03-24T22:00:35.689Z,16.53
2019-03-24T22:03:11.645Z,17.80
2019-03-24T22:05:47.123Z,14.63
2019-03-24T22:08:23.189Z,18.37
2019-03-24T22:11:03.171Z,18.77
2019-03-24T22:13:38.350Z,13.33
2019-03-24T22:16:14.463Z,16.93
2019-03-24T22:18:50.255Z,21.30
2019-03-24T22:21:25.291Z,15.37
2019-03-24T22:24:00.337Z,13.53
2019-03-24T22:26:35.660Z,17.70
2019-03-24T22:29:10.858Z,16.23
2019-03-24T22:31:46.192Z,20.00
2019-03-24T22:34:21.083Z,17.97
2019-03-24T22:36:55.700Z,15.47
2019-03-24T22:39:31.350Z,18.77
2019-03-24T22:42:06.706Z,17.90
2019-03-24T22:44:41.652Z,22.27
2019-03-24T22:47:16.711Z,16.67
2019-03-24T22:49:51.681Z,22.83
2019-03-24T22:52:27.607Z,15.20
2019-03-24T22:55:02.351Z,16.83
2019-03-24T22:57:37.380Z,18.17
2019-03-24T23:00:20.483Z,14.87
2019-03-24T23:02:55.953Z,16.10
2019-03-24T23:05:31.836Z,15.70
2019-03-24T23:08:06.484Z,10.63
2019-03-24T23:10:41.854Z,15.80
2019-03-24T23:13:16.555Z,12.93
2019-03-24T23:15:51.582Z,17.77
2019-03-24T23:18:26.237Z,16.50
2019-03-24T23:21:00.917Z,13.93
2019-03-24T23:23:36.323Z,14.13
2019-03-24T23:26:12.044Z,11.33
2019-03-24T23:28:47.388Z,15.83
2019-03-24T23:31:22.954Z,11.53
2019-03-24T23:33:58.729Z,15.23
2019-03-24T23:36:33.526Z,13.93
2019-03-24T23:39:10.270Z,10.67
2019-03-24T23:41:45.235Z,15.57
2019-03-24T23:44:20.604Z,12.10
2019-03-24T23:46:55.456Z,12.53
2019-03-24T23:49:30.603Z,10.77
2019-03-24T23:52:06.732Z,17.37
2019-03-24T23:54:41.935Z,15.47
2019-03-24T23:57:18.241Z,15.30
2019-03-24T23:59:59.271Z,14.67
